sensor_id;sensor_type;location;lat;lon;timestamp;P1;durP1;ratioP1;P2;durP2;ratioP2
22916;SDS011;11624;53.250;7.456;2022-09-11T00:01:30;36.33;;;20.63;;
22916;SDS011;11624;53.250;7.456;2022-09-11T00:03:58;33.38;;;19.80;;
22916;SDS011;11624;53.250;7.456;2022-09-11T00:06:26;43.13;;;21.95;;
22916;SDS011;11624;53.250;7.456;2022-09-11T00:08:56;36.08;;;21.33;;
22916;SDS011;11624;53.250;7.456;2022-09-11T00:11:27;35.92;;;20.13;;
22916;SDS011;11624;53.250;7.456;2022-09-11T00:13:56;40.33;;;21.45;;
22916;SDS011;11624;53.250;7.456;2022-09-11T00:16:27;36.78;;;20.80;;
22916;SDS011;11624;53.250;7.456;2022-09-11T00:18:57;39.08;;;20.70;;
22916;SDS011;11624;53.250;7.456;2022-09-11T00:21:27;30.95;;;18.23;;
22916;SDS011;11624;53.250;7.456;2022-09-11T00:23:55;32.72;;;17.30;;
22916;SDS011;11624;53.250;7.456;2022-09-11T00:26:24;34.67;;;19.05;;
22916;SDS011;11624;53.250;7.456;2022-09-11T00:28:53;31.67;;;18.33;;
22916;SDS011;11624;53.250;7.456;2022-09-11T00:31:23;33.90;;;18.48;;
22916;SDS011;11624;53.250;7.456;2022-09-11T00:33:54;35.88;;;19.38;;
22916;SDS011;11624;53.250;7.456;2022-09-11T00:36:23;33.05;;;19.15;;
22916;SDS011;11624;53.250;7.456;2022-09-11T00:38:54;30.58;;;17.88;;
22916;SDS011;11624;53.250;7.456;2022-09-11T00:41:24;36.15;;;19.50;;
22916;SDS011;11624;53.250;7.456;2022-09-11T00:43:55;32.67;;;18.92;;
22916;SDS011;11624;53.250;7.456;2022-09-11T00:46:31;35.03;;;18.38;;
22916;SDS011;11624;53.250;7.456;2022-09-11T00:49:04;34.08;;;18.02;;
22916;SDS011;11624;53.250;7.456;2022-09-11T00:51:41;30.33;;;18.17;;
22916;SDS011;11624;53.250;7.456;2022-09-11T00:54:12;34.25;;;18.38;;
22916;SDS011;11624;53.250;7.456;2022-09-11T00:56:44;33.95;;;17.80;;
22916;SDS011;11624;53.250;7.456;2022-09-11T00:59:14;28.25;;;16.30;;
22916;SDS011;11624;53.250;7.456;2022-09-11T01:01:44;33.55;;;17.00;;
22916;SDS011;11624;53.250;7.456;2022-09-11T01:04:12;29.92;;;16.70;;
22916;SDS011;11624;53.250;7.456;2022-09-11T01:06:41;32.30;;;17.33;;
22916;SDS011;11624;53.250;7.456;2022-09-11T01:09:12;32.25;;;17.35;;
22916;SDS011;11624;53.250;7.456;2022-09-11T01:11:46;29.45;;;17.35;;
22916;SDS011;11624;53.250;7.456;2022-09-11T01:14:28;44.47;;;20.70;;
22916;SDS011;11624;53.250;7.456;2022-09-11T01:17:04;34.80;;;18.63;;
22916;SDS011;11624;53.250;7.456;2022-09-11T01:19:55;37.45;;;19.42;;
22916;SDS011;11624;53.250;7.456;2022-09-11T01:22:43;38.20;;;19.60;;
22916;SDS011;11624;53.250;7.456;2022-09-11T01:25:22;33.85;;;18.95;;
22916;SDS011;11624;53.250;7.456;2022-09-11T01:27:55;40.58;;;19.40;;
22916;SDS011;11624;53.250;7.456;2022-09-11T01:30:27;42.20;;;19.92;;
22916;SDS011;11624;53.250;7.456;2022-09-11T01:33:01;36.08;;;18.65;;
22916;SDS011;11624;53.250;7.456;2022-09-11T01:35:39;35.35;;;18.95;;
22916;SDS011;11624;53.250;7.456;2022-09-11T01:38:17;37.70;;;18.77;;
22916;SDS011;11624;53.250;7.456;2022-09-11T01:40:51;40.70;;;20.13;;
22916;SDS011;11624;53.250;7.456;2022-09-11T01:43:24;39.95;;;18.73;;
22916;SDS011;11624;53.250;7.456;2022-09-11T01:45:55;35.38;;;18.60;;
22916;SDS011;11624;53.250;7.456;2022-09-11T01:48:27;74.50;;;21.20;;
22916;SDS011;11624;53.250;7.456;2022-09-11T01:50:59;34.05;;;18.20;;
22916;SDS011;11624;53.250;7.456;2022-09-11T01:53:30;34.90;;;17.95;;
22916;SDS011;11624;53.250;7.456;2022-09-11T01:56:04;37.67;;;17.50;;
22916;SDS011;11624;53.250;7.456;2022-09-11T01:58:38;37.13;;;17.98;;
22916;SDS011;11624;53.250;7.456;2022-09-11T02:01:09;35.75;;;18.75;;
22916;SDS011;11624;53.250;7.456;2022-09-11T02:03:43;34.67;;;17.77;;
22916;SDS011;11624;53.250;7.456;2022-09-11T02:06:14;38.58;;;19.40;;
22916;SDS011;11624;53.250;7.456;2022-09-11T02:08:47;31.67;;;17.10;;
22916;SDS011;11624;53.250;7.456;2022-09-11T02:11:21;33.65;;;16.33;;
22916;SDS011;11624;53.250;7.456;2022-09-11T02:13:52;28.30;;;15.40;;
22916;SDS011;11624;53.250;7.456;2022-09-11T02:16:25;31.10;;;16.02;;
22916;SDS011;11624;53.250;7.456;2022-09-11T02:19:02;30.05;;;16.02;;
22916;SDS011;11624;53.250;7.456;2022-09-11T02:21:32;30.98;;;16.08;;
22916;SDS011;11624;53.250;7.456;2022-09-11T02:24:01;30.80;;;16.05;;
22916;SDS011;11624;53.250;7.456;2022-09-11T02:26:31;31.80;;;16.13;;
22916;SDS011;11624;53.250;7.456;2022-09-11T02:29:06;29.95;;;15.75;;
22916;SDS011;11624;53.250;7.456;2022-09-11T02:31:34;32.15;;;16.05;;
22916;SDS011;11624;53.250;7.456;2022-09-11T02:34:03;37.95;;;16.20;;
22916;SDS011;11624;53.250;7.456;2022-09-11T02:36:38;28.05;;;15.27;;
22916;SDS011;11624;53.250;7.456;2022-09-11T02:39:23;33.60;;;16.15;;
22916;SDS011;11624;53.250;7.456;2022-09-11T02:42:05;37.20;;;17.10;;
22916;SDS011;11624;53.250;7.456;2022-09-11T02:44:50;36.75;;;17.17;;
22916;SDS011;11624;53.250;7.456;2022-09-11T02:47:28;33.38;;;15.38;;
22916;SDS011;11624;53.250;7.456;2022-09-11T02:50:10;32.67;;;15.60;;
22916;SDS011;11624;53.250;7.456;2022-09-11T02:52:48;37.17;;;16.85;;
22916;SDS011;11624;53.250;7.456;2022-09-11T02:55:27;55.05;;;20.02;;
22916;SDS011;11624;53.250;7.456;2022-09-11T02:58:04;63.42;;;20.70;;
22916;SDS011;11624;53.250;7.456;2022-09-11T03:00:40;313.95;;;34.33;;
22916;SDS011;11624;53.250;7.456;2022-09-11T03:03:08;153.35;;;25.13;;
22916;SDS011;11624;53.250;7.456;2022-09-11T03:05:36;42.17;;;17.70;;
22916;SDS011;11624;53.250;7.456;2022-09-11T03:08:05;339.45;;;34.22;;
22916;SDS011;11624;53.250;7.456;2022-09-11T03:10:34;152.80;;;23.38;;
22916;SDS011;11624;53.250;7.456;2022-09-11T03:13:07;444.15;;;40.28;;
22916;SDS011;11624;53.250;7.456;2022-09-11T03:15:35;111.22;;;21.05;;
22916;SDS011;11624;53.250;7.456;2022-09-11T03:18:04;117.20;;;21.13;;
22916;SDS011;11624;53.250;7.456;2022-09-11T03:20:34;155.10;;;23.45;;
22916;SDS011;11624;53.250;7.456;2022-09-11T03:23:02;185.98;;;25.85;;
22916;SDS011;11624;53.250;7.456;2022-09-11T03:25:35;28.67;;;14.05;;
22916;SDS011;11624;53.250;7.456;2022-09-11T03:28:04;27.25;;;13.20;;
22916;SDS011;11624;53.250;7.456;2022-09-11T03:30:32;41.63;;;15.73;;
22916;SDS011;11624;53.250;7.456;2022-09-11T03:33:01;79.75;;;17.63;;
22916;SDS011;11624;53.250;7.456;2022-09-11T03:35:32;171.40;;;23.20;;
22916;SDS011;11624;53.250;7.456;2022-09-11T03:38:01;33.33;;;14.35;;
22916;SDS011;11624;53.250;7.456;2022-09-11T03:40:29;27.40;;;13.55;;
22916;SDS011;11624;53.250;7.456;2022-09-11T03:42:57;27.02;;;13.43;;
22916;SDS011;11624;53.250;7.456;2022-09-11T03:45:26;28.25;;;13.77;;
22916;SDS011;11624;53.250;7.456;2022-09-11T03:47:55;59.35;;;18.38;;
22916;SDS011;11624;53.250;7.456;2022-09-11T03:50:24;87.28;;;20.70;;
22916;SDS011;11624;53.250;7.456;2022-09-11T03:52:53;36.13;;;16.30;;
22916;SDS011;11624;53.250;7.456;2022-09-11T03:55:21;44.38;;;17.75;;
22916;SDS011;11624;53.250;7.456;2022-09-11T03:57:49;36.65;;;15.70;;
22916;SDS011;11624;53.250;7.456;2022-09-11T04:00:17;109.20;;;21.15;;
22916;SDS011;11624;53.250;7.456;2022-09-11T04:02:45;45.88;;;17.02;;
22916;SDS011;11624;53.250;7.456;2022-09-11T04:05:26;38.83;;;16.25;;
22916;SDS011;11624;53.250;7.456;2022-09-11T04:07:57;40.67;;;16.85;;
22916;SDS011;11624;53.250;7.456;2022-09-11T04:10:28;34.10;;;15.05;;
22916;SDS011;11624;53.250;7.456;2022-09-11T04:13:00;28.52;;;14.32;;
22916;SDS011;11624;53.250;7.456;2022-09-11T04:15:28;29.95;;;15.10;;
22916;SDS011;11624;53.250;7.456;2022-09-11T04:17:58;31.33;;;14.43;;
22916;SDS011;11624;53.250;7.456;2022-09-11T04:20:32;25.23;;;13.05;;
22916;SDS011;11624;53.250;7.456;2022-09-11T04:23:02;27.10;;;13.68;;
22916;SDS011;11624;53.250;7.456;2022-09-11T04:25:30;28.13;;;13.20;;
22916;SDS011;11624;53.250;7.456;2022-09-11T04:28:01;64.50;;;16.48;;
22916;SDS011;11624;53.250;7.456;2022-09-11T04:30:29;30.45;;;13.75;;
22916;SDS011;11624;53.250;7.456;2022-09-11T04:32:58;24.92;;;12.55;;
22916;SDS011;11624;53.250;7.456;2022-09-11T04:35:27;26.23;;;13.43;;
22916;SDS011;11624;53.250;7.456;2022-09-11T04:37:58;25.70;;;13.60;;
22916;SDS011;11624;53.250;7.456;2022-09-11T04:40:29;22.58;;;12.45;;
22916;SDS011;11624;53.250;7.456;2022-09-11T04:42:58;23.23;;;12.38;;
22916;SDS011;11624;53.250;7.456;2022-09-11T04:45:26;24.48;;;12.65;;
22916;SDS011;11624;53.250;7.456;2022-09-11T04:47:56;22.73;;;11.70;;
22916;SDS011;11624;53.250;7.456;2022-09-11T04:50:25;23.33;;;11.73;;
22916;SDS011;11624;53.250;7.456;2022-09-11T04:53:12;21.15;;;11.18;;
22916;SDS011;11624;53.250;7.456;2022-09-11T04:55:42;21.20;;;11.00;;
22916;SDS011;11624;53.250;7.456;2022-09-11T04:58:12;21.13;;;11.38;;
22916;SDS011;11624;53.250;7.456;2022-09-11T05:00:40;21.88;;;11.57;;
22916;SDS011;11624;53.250;7.456;2022-09-11T05:03:08;22.92;;;12.55;;
22916;SDS011;11624;53.250;7.456;2022-09-11T05:05:37;34.38;;;12.85;;
22916;SDS011;11624;53.250;7.456;2022-09-11T05:08:05;65.68;;;14.18;;
22916;SDS011;11624;53.250;7.456;2022-09-11T05:10:35;45.08;;;13.18;;
22916;SDS011;11624;53.250;7.456;2022-09-11T05:13:06;27.65;;;11.43;;
22916;SDS011;11624;53.250;7.456;2022-09-11T05:15:35;24.23;;;10.63;;
22916;SDS011;11624;53.250;7.456;2022-09-11T05:18:03;33.92;;;10.38;;
22916;SDS011;11624;53.250;7.456;2022-09-11T05:20:32;46.92;;;11.80;;
22916;SDS011;11624;53.250;7.456;2022-09-11T05:23:01;47.42;;;12.30;;
22916;SDS011;11624;53.250;7.456;2022-09-11T05:25:29;77.65;;;14.73;;
22916;SDS011;11624;53.250;7.456;2022-09-11T05:27:58;48.42;;;12.98;;
22916;SDS011;11624;53.250;7.456;2022-09-11T05:30:28;20.10;;;10.40;;
22916;SDS011;11624;53.250;7.456;2022-09-11T05:32:56;73.63;;;15.80;;
22916;SDS011;11624;53.250;7.456;2022-09-11T05:35:25;62.53;;;14.45;;
22916;SDS011;11624;53.250;7.456;2022-09-11T05:37:58;27.00;;;11.30;;
22916;SDS011;11624;53.250;7.456;2022-09-11T05:40:27;33.28;;;12.30;;
22916;SDS011;11624;53.250;7.456;2022-09-11T05:42:56;21.23;;;11.50;;
22916;SDS011;11624;53.250;7.456;2022-09-11T05:45:24;21.77;;;11.68;;
22916;SDS011;11624;53.250;7.456;2022-09-11T05:47:54;35.42;;;13.57;;
22916;SDS011;11624;53.250;7.456;2022-09-11T05:50:23;141.85;;;19.33;;
22916;SDS011;11624;53.250;7.456;2022-09-11T05:52:51;195.95;;;24.25;;
22916;SDS011;11624;53.250;7.456;2022-09-11T05:55:20;99.68;;;17.38;;
22916;SDS011;11624;53.250;7.456;2022-09-11T05:57:50;62.40;;;15.50;;
22916;SDS011;11624;53.250;7.456;2022-09-11T06:00:19;48.92;;;14.27;;
22916;SDS011;11624;53.250;7.456;2022-09-11T06:02:51;24.45;;;12.82;;
22916;SDS011;11624;53.250;7.456;2022-09-11T06:05:25;19.17;;;11.13;;
22916;SDS011;11624;53.250;7.456;2022-09-11T06:07:55;18.73;;;11.15;;
22916;SDS011;11624;53.250;7.456;2022-09-11T06:10:23;21.95;;;11.90;;
22916;SDS011;11624;53.250;7.456;2022-09-11T06:12:52;20.67;;;12.52;;
22916;SDS011;11624;53.250;7.456;2022-09-11T06:15:20;20.65;;;11.82;;
22916;SDS011;11624;53.250;7.456;2022-09-11T06:18:09;21.75;;;11.75;;
22916;SDS011;11624;53.250;7.456;2022-09-11T06:20:38;19.92;;;12.27;;
22916;SDS011;11624;53.250;7.456;2022-09-11T06:23:12;20.05;;;12.10;;
22916;SDS011;11624;53.250;7.456;2022-09-11T06:25:40;22.95;;;13.10;;
22916;SDS011;11624;53.250;7.456;2022-09-11T06:28:09;21.10;;;12.63;;
22916;SDS011;11624;53.250;7.456;2022-09-11T06:30:39;25.02;;;12.70;;
22916;SDS011;11624;53.250;7.456;2022-09-11T06:33:09;37.88;;;13.13;;
22916;SDS011;11624;53.250;7.456;2022-09-11T06:35:38;22.88;;;12.82;;
22916;SDS011;11624;53.250;7.456;2022-09-11T06:38:06;26.95;;;12.48;;
22916;SDS011;11624;53.250;7.456;2022-09-11T06:40:35;28.48;;;13.63;;
22916;SDS011;11624;53.250;7.456;2022-09-11T06:43:03;26.00;;;12.20;;
22916;SDS011;11624;53.250;7.456;2022-09-11T06:45:31;23.02;;;11.88;;
22916;SDS011;11624;53.250;7.456;2022-09-11T06:48:00;23.35;;;12.32;;
22916;SDS011;11624;53.250;7.456;2022-09-11T06:50:31;24.63;;;12.35;;
22916;SDS011;11624;53.250;7.456;2022-09-11T06:53:05;22.08;;;11.60;;
22916;SDS011;11624;53.250;7.456;2022-09-11T06:55:37;27.60;;;12.93;;
22916;SDS011;11624;53.250;7.456;2022-09-11T06:58:11;26.42;;;12.98;;
22916;SDS011;11624;53.250;7.456;2022-09-11T07:00:40;25.52;;;13.13;;
22916;SDS011;11624;53.250;7.456;2022-09-11T07:03:09;29.35;;;14.25;;
22916;SDS011;11624;53.250;7.456;2022-09-11T07:05:43;34.35;;;12.77;;
22916;SDS011;11624;53.250;7.456;2022-09-11T07:08:12;20.65;;;11.50;;
22916;SDS011;11624;53.250;7.456;2022-09-11T07:10:45;18.83;;;11.00;;
22916;SDS011;11624;53.250;7.456;2022-09-11T07:13:13;19.73;;;11.05;;
22916;SDS011;11624;53.250;7.456;2022-09-11T07:15:41;22.23;;;11.48;;
22916;SDS011;11624;53.250;7.456;2022-09-11T07:18:10;19.92;;;11.48;;
22916;SDS011;11624;53.250;7.456;2022-09-11T07:20:40;19.30;;;11.30;;
22916;SDS011;11624;53.250;7.456;2022-09-11T07:23:09;17.75;;;10.68;;
22916;SDS011;11624;53.250;7.456;2022-09-11T07:25:37;16.73;;;10.10;;
22916;SDS011;11624;53.250;7.456;2022-09-11T07:28:06;16.83;;;9.32;;
22916;SDS011;11624;53.250;7.456;2022-09-11T07:30:34;15.48;;;8.75;;
22916;SDS011;11624;53.250;7.456;2022-09-11T07:33:02;16.23;;;9.18;;
22916;SDS011;11624;53.250;7.456;2022-09-11T07:35:31;14.82;;;9.05;;
22916;SDS011;11624;53.250;7.456;2022-09-11T07:38:03;17.15;;;9.35;;
22916;SDS011;11624;53.250;7.456;2022-09-11T07:40:35;15.77;;;8.85;;
22916;SDS011;11624;53.250;7.456;2022-09-11T07:43:04;16.33;;;8.70;;
22916;SDS011;11624;53.250;7.456;2022-09-11T07:45:32;16.42;;;9.43;;
22916;SDS011;11624;53.250;7.456;2022-09-11T07:48:01;18.23;;;9.32;;
22916;SDS011;11624;53.250;7.456;2022-09-11T07:50:29;15.93;;;9.40;;
22916;SDS011;11624;53.250;7.456;2022-09-11T07:52:58;16.20;;;8.90;;
22916;SDS011;11624;53.250;7.456;2022-09-11T07:55:28;16.20;;;8.32;;
22916;SDS011;11624;53.250;7.456;2022-09-11T07:57:56;16.73;;;9.27;;
22916;SDS011;11624;53.250;7.456;2022-09-11T08:00:24;16.13;;;9.65;;
22916;SDS011;11624;53.250;7.456;2022-09-11T08:03:01;17.63;;;10.40;;
22916;SDS011;11624;53.250;7.456;2022-09-11T08:05:33;15.95;;;9.25;;
22916;SDS011;11624;53.250;7.456;2022-09-11T08:08:01;18.38;;;9.45;;
22916;SDS011;11624;53.250;7.456;2022-09-11T08:10:31;17.35;;;9.85;;
22916;SDS011;11624;53.250;7.456;2022-09-11T08:13:04;16.95;;;10.15;;
22916;SDS011;11624;53.250;7.456;2022-09-11T08:15:35;19.77;;;10.50;;
22916;SDS011;11624;53.250;7.456;2022-09-11T08:18:05;18.98;;;10.82;;
22916;SDS011;11624;53.250;7.456;2022-09-11T08:20:33;19.13;;;11.02;;
22916;SDS011;11624;53.250;7.456;2022-09-11T08:23:01;19.42;;;11.30;;
22916;SDS011;11624;53.250;7.456;2022-09-11T08:25:30;20.33;;;12.15;;
22916;SDS011;11624;53.250;7.456;2022-09-11T08:28:02;20.05;;;11.75;;
22916;SDS011;11624;53.250;7.456;2022-09-11T08:30:31;18.73;;;11.30;;
22916;SDS011;11624;53.250;7.456;2022-09-11T08:33:00;20.48;;;11.48;;
22916;SDS011;11624;53.250;7.456;2022-09-11T08:35:28;19.90;;;11.48;;
22916;SDS011;11624;53.250;7.456;2022-09-11T08:37:56;17.73;;;9.75;;
22916;SDS011;11624;53.250;7.456;2022-09-11T08:40:24;18.40;;;9.85;;
22916;SDS011;11624;53.250;7.456;2022-09-11T08:42:59;20.48;;;10.15;;
22916;SDS011;11624;53.250;7.456;2022-09-11T08:45:32;18.63;;;10.52;;
22916;SDS011;11624;53.250;7.456;2022-09-11T08:48:03;17.83;;;9.98;;
22916;SDS011;11624;53.250;7.456;2022-09-11T08:50:35;19.30;;;10.15;;
22916;SDS011;11624;53.250;7.456;2022-09-11T08:53:10;19.00;;;10.70;;
22916;SDS011;11624;53.250;7.456;2022-09-11T08:55:42;17.02;;;9.88;;
22916;SDS011;11624;53.250;7.456;2022-09-11T08:58:19;22.83;;;10.45;;
22916;SDS011;11624;53.250;7.456;2022-09-11T09:00:57;18.75;;;10.10;;
22916;SDS011;11624;53.250;7.456;2022-09-11T09:03:46;17.58;;;9.77;;
22916;SDS011;11624;53.250;7.456;2022-09-11T09:06:31;16.67;;;9.15;;
22916;SDS011;11624;53.250;7.456;2022-09-11T09:09:12;16.20;;;8.43;;
22916;SDS011;11624;53.250;7.456;2022-09-11T09:11:49;16.58;;;9.43;;
22916;SDS011;11624;53.250;7.456;2022-09-11T09:14:33;16.85;;;9.00;;
22916;SDS011;11624;53.250;7.456;2022-09-11T09:17:25;16.98;;;9.55;;
22916;SDS011;11624;53.250;7.456;2022-09-11T09:19:56;19.33;;;9.23;;
22916;SDS011;11624;53.250;7.456;2022-09-11T09:22:32;16.92;;;10.35;;
22916;SDS011;11624;53.250;7.456;2022-09-11T09:25:08;16.85;;;8.82;;
22916;SDS011;11624;53.250;7.456;2022-09-11T09:27:42;16.92;;;8.75;;
22916;SDS011;11624;53.250;7.456;2022-09-11T09:30:14;16.30;;;7.70;;
22916;SDS011;11624;53.250;7.456;2022-09-11T09:32:46;15.30;;;7.07;;
22916;SDS011;11624;53.250;7.456;2022-09-11T09:35:20;13.02;;;5.90;;
22916;SDS011;11624;53.250;7.456;2022-09-11T09:37:52;12.43;;;5.45;;
22916;SDS011;11624;53.250;7.456;2022-09-11T09:40:20;11.57;;;4.95;;
22916;SDS011;11624;53.250;7.456;2022-09-11T09:45:57;9.13;;;3.95;;
22916;SDS011;11624;53.250;7.456;2022-09-11T09:48:32;11.10;;;3.92;;
22916;SDS011;11624;53.250;7.456;2022-09-11T09:51:05;9.60;;;3.78;;
22916;SDS011;11624;53.250;7.456;2022-09-11T09:53:39;10.77;;;4.05;;
22916;SDS011;11624;53.250;7.456;2022-09-11T09:56:13;12.10;;;4.40;;
22916;SDS011;11624;53.250;7.456;2022-09-11T09:58:46;10.55;;;4.25;;
22916;SDS011;11624;53.250;7.456;2022-09-11T10:04:13;10.68;;;4.18;;
22916;SDS011;11624;53.250;7.456;2022-09-11T10:06:43;12.07;;;4.28;;
22916;SDS011;11624;53.250;7.456;2022-09-11T10:09:22;8.95;;;3.42;;
22916;SDS011;11624;53.250;7.456;2022-09-11T10:11:53;8.05;;;3.53;;
22916;SDS011;11624;53.250;7.456;2022-09-11T10:14:27;10.15;;;3.80;;
22916;SDS011;11624;53.250;7.456;2022-09-11T10:17:20;7.15;;;3.47;;
22916;SDS011;11624;53.250;7.456;2022-09-11T10:19:52;9.85;;;3.97;;
22916;SDS011;11624;53.250;7.456;2022-09-11T10:22:25;9.25;;;3.53;;
22916;SDS011;11624;53.250;7.456;2022-09-11T10:25:03;9.27;;;3.58;;
22916;SDS011;11624;53.250;7.456;2022-09-11T10:27:42;10.75;;;3.17;;
22916;SDS011;11624;53.250;7.456;2022-09-11T10:30:27;5.80;;;2.72;;
22916;SDS011;11624;53.250;7.456;2022-09-11T10:33:03;9.82;;;3.20;;
22916;SDS011;11624;53.250;7.456;2022-09-11T10:35:33;7.22;;;2.80;;
22916;SDS011;11624;53.250;7.456;2022-09-11T10:38:13;7.60;;;3.38;;
22916;SDS011;11624;53.250;7.456;2022-09-11T10:40:53;7.40;;;3.08;;
22916;SDS011;11624;53.250;7.456;2022-09-11T10:43:25;7.03;;;2.97;;
22916;SDS011;11624;53.250;7.456;2022-09-11T10:46:01;8.93;;;3.40;;
22916;SDS011;11624;53.250;7.456;2022-09-11T10:48:31;7.28;;;3.40;;
22916;SDS011;11624;53.250;7.456;2022-09-11T10:51:03;7.88;;;3.08;;
22916;SDS011;11624;53.250;7.456;2022-09-11T10:53:32;8.27;;;3.60;;
22916;SDS011;11624;53.250;7.456;2022-09-11T10:56:09;7.38;;;3.10;;
22916;SDS011;11624;53.250;7.456;2022-09-11T10:58:37;7.70;;;2.97;;
22916;SDS011;11624;53.250;7.456;2022-09-11T11:01:09;6.38;;;2.50;;
22916;SDS011;11624;53.250;7.456;2022-09-11T11:03:39;5.00;;;2.30;;
22916;SDS011;11624;53.250;7.456;2022-09-11T11:06:10;5.00;;;2.20;;
22916;SDS011;11624;53.250;7.456;2022-09-11T11:08:52;5.47;;;2.20;;
22916;SDS011;11624;53.250;7.456;2022-09-11T11:11:44;4.68;;;2.10;;
22916;SDS011;11624;53.250;7.456;2022-09-11T11:14:42;5.55;;;1.80;;
22916;SDS011;11624;53.250;7.456;2022-09-11T11:17:23;4.22;;;1.83;;
22916;SDS011;11624;53.250;7.456;2022-09-11T11:20:07;5.63;;;2.25;;
22916;SDS011;11624;53.250;7.456;2022-09-11T11:22:57;4.70;;;1.80;;
22916;SDS011;11624;53.250;7.456;2022-09-11T11:25:47;5.90;;;2.20;;
22916;SDS011;11624;53.250;7.456;2022-09-11T11:28:29;3.65;;;1.88;;
22916;SDS011;11624;53.250;7.456;2022-09-11T11:31:11;6.22;;;2.33;;
22916;SDS011;11624;53.250;7.456;2022-09-11T11:36:53;4.75;;;2.00;;
22916;SDS011;11624;53.250;7.456;2022-09-11T11:39:29;3.55;;;1.70;;
22916;SDS011;11624;53.250;7.456;2022-09-11T11:42:05;3.28;;;1.90;;
22916;SDS011;11624;53.250;7.456;2022-09-11T11:44:39;5.65;;;2.45;;
22916;SDS011;11624;53.250;7.456;2022-09-11T11:47:11;4.38;;;2.30;;
22916;SDS011;11624;53.250;7.456;2022-09-11T11:49:45;6.10;;;2.28;;
22916;SDS011;11624;53.250;7.456;2022-09-11T11:52:33;5.07;;;2.13;;
22916;SDS011;11624;53.250;7.456;2022-09-11T11:55:14;5.53;;;2.45;;
22916;SDS011;11624;53.250;7.456;2022-09-11T11:57:46;5.22;;;2.17;;
22916;SDS011;11624;53.250;7.456;2022-09-11T12:00:20;5.03;;;2.20;;
22916;SDS011;11624;53.250;7.456;2022-09-11T12:02:50;4.65;;;2.40;;
22916;SDS011;11624;53.250;7.456;2022-09-11T12:05:23;4.43;;;2.15;;
22916;SDS011;11624;53.250;7.456;2022-09-11T12:07:54;6.68;;;2.58;;
22916;SDS011;11624;53.250;7.456;2022-09-11T12:10:26;6.78;;;2.30;;
22916;SDS011;11624;53.250;7.456;2022-09-11T12:12:58;6.53;;;2.25;;
22916;SDS011;11624;53.250;7.456;2022-09-11T12:15:29;2.83;;;1.80;;
22916;SDS011;11624;53.250;7.456;2022-09-11T12:18:00;6.47;;;2.20;;
22916;SDS011;11624;53.250;7.456;2022-09-11T12:20:31;6.63;;;2.67;;
22916;SDS011;11624;53.250;7.456;2022-09-11T12:23:06;5.78;;;2.17;;
22916;SDS011;11624;53.250;7.456;2022-09-11T12:26:04;6.28;;;2.65;;
22916;SDS011;11624;53.250;7.456;2022-09-11T12:28:42;5.60;;;2.40;;
22916;SDS011;11624;53.250;7.456;2022-09-11T12:31:11;3.78;;;2.00;;
22916;SDS011;11624;53.250;7.456;2022-09-11T12:33:48;3.70;;;1.77;;
22916;SDS011;11624;53.250;7.456;2022-09-11T12:36:44;4.78;;;2.10;;
22916;SDS011;11624;53.250;7.456;2022-09-11T12:39:21;2.92;;;1.80;;
22916;SDS011;11624;53.250;7.456;2022-09-11T12:44:55;3.30;;;2.00;;
22916;SDS011;11624;53.250;7.456;2022-09-11T12:47:25;3.80;;;1.95;;
22916;SDS011;11624;53.250;7.456;2022-09-11T12:49:55;5.30;;;2.10;;
22916;SDS011;11624;53.250;7.456;2022-09-11T12:52:36;5.00;;;2.22;;
22916;SDS011;11624;53.250;7.456;2022-09-11T12:55:21;7.75;;;2.72;;
22916;SDS011;11624;53.250;7.456;2022-09-11T12:57:56;4.25;;;2.35;;
22916;SDS011;11624;53.250;7.456;2022-09-11T13:00:33;5.93;;;1.98;;
22916;SDS011;11624;53.250;7.456;2022-09-11T13:03:05;5.90;;;2.22;;
22916;SDS011;11624;53.250;7.456;2022-09-11T13:05:42;6.35;;;2.00;;
22916;SDS011;11624;53.250;7.456;2022-09-11T13:08:20;6.50;;;2.10;;
22916;SDS011;11624;53.250;7.456;2022-09-11T13:10:54;4.40;;;1.95;;
22916;SDS011;11624;53.250;7.456;2022-09-11T13:14:02;5.53;;;2.03;;
22916;SDS011;11624;53.250;7.456;2022-09-11T13:16:32;4.80;;;1.88;;
22916;SDS011;11624;53.250;7.456;2022-09-11T13:19:02;5.25;;;1.83;;
22916;SDS011;11624;53.250;7.456;2022-09-11T13:21:39;4.97;;;1.92;;
22916;SDS011;11624;53.250;7.456;2022-09-11T13:24:20;4.40;;;1.60;;
22916;SDS011;11624;53.250;7.456;2022-09-11T13:26:52;4.78;;;1.88;;
22916;SDS011;11624;53.250;7.456;2022-09-11T13:29:24;2.90;;;1.73;;
22916;SDS011;11624;53.250;7.456;2022-09-11T13:31:55;5.50;;;1.80;;
22916;SDS011;11624;53.250;7.456;2022-09-11T13:34:26;6.45;;;2.13;;
22916;SDS011;11624;53.250;7.456;2022-09-11T13:36:56;5.50;;;1.90;;
22916;SDS011;11624;53.250;7.456;2022-09-11T13:39:25;4.82;;;1.83;;
22916;SDS011;11624;53.250;7.456;2022-09-11T13:41:59;3.25;;;1.77;;
22916;SDS011;11624;53.250;7.456;2022-09-11T13:44:30;6.75;;;1.80;;
22916;SDS011;11624;53.250;7.456;2022-09-11T13:47:12;4.35;;;1.73;;
22916;SDS011;11624;53.250;7.456;2022-09-11T13:49:45;3.88;;;2.00;;
22916;SDS011;11624;53.250;7.456;2022-09-11T13:52:16;6.50;;;2.20;;
22916;SDS011;11624;53.250;7.456;2022-09-11T13:54:49;5.80;;;2.22;;
22916;SDS011;11624;53.250;7.456;2022-09-11T13:57:21;4.05;;;2.00;;
22916;SDS011;11624;53.250;7.456;2022-09-11T13:59:51;6.70;;;2.30;;
22916;SDS011;11624;53.250;7.456;2022-09-11T14:05:17;7.40;;;1.95;;
22916;SDS011;11624;53.250;7.456;2022-09-11T14:07:50;5.10;;;1.75;;
22916;SDS011;11624;53.250;7.456;2022-09-11T14:10:24;9.45;;;2.03;;
22916;SDS011;11624;53.250;7.456;2022-09-11T14:12:58;3.92;;;1.70;;
22916;SDS011;11624;53.250;7.456;2022-09-11T14:15:34;3.08;;;1.50;;
22916;SDS011;11624;53.250;7.456;2022-09-11T14:18:08;2.63;;;1.60;;
22916;SDS011;11624;53.250;7.456;2022-09-11T14:20:41;2.42;;;1.63;;
22916;SDS011;11624;53.250;7.456;2022-09-11T14:23:14;4.50;;;1.77;;
22916;SDS011;11624;53.250;7.456;2022-09-11T14:26:02;4.22;;;1.42;;
22916;SDS011;11624;53.250;7.456;2022-09-11T14:28:35;3.90;;;1.63;;
22916;SDS011;11624;53.250;7.456;2022-09-11T14:31:09;5.53;;;1.80;;
22916;SDS011;11624;53.250;7.456;2022-09-11T14:33:40;3.58;;;1.80;;
22916;SDS011;11624;53.250;7.456;2022-09-11T14:36:12;4.15;;;1.70;;
22916;SDS011;11624;53.250;7.456;2022-09-11T14:38:45;2.50;;;1.83;;
22916;SDS011;11624;53.250;7.456;2022-09-11T14:41:14;6.15;;;1.67;;
22916;SDS011;11624;53.250;7.456;2022-09-11T14:43:44;2.38;;;1.55;;
22916;SDS011;11624;53.250;7.456;2022-09-11T14:46:15;3.10;;;1.60;;
22916;SDS011;11624;53.250;7.456;2022-09-11T14:48:43;4.05;;;1.48;;
22916;SDS011;11624;53.250;7.456;2022-09-11T14:51:12;4.72;;;1.80;;
22916;SDS011;11624;53.250;7.456;2022-09-11T14:53:40;2.33;;;1.70;;
22916;SDS011;11624;53.250;7.456;2022-09-11T14:56:09;5.03;;;1.80;;
22916;SDS011;11624;53.250;7.456;2022-09-11T14:58:37;2.72;;;1.60;;
22916;SDS011;11624;53.250;7.456;2022-09-11T15:01:08;4.85;;;1.90;;
22916;SDS011;11624;53.250;7.456;2022-09-11T15:03:41;2.55;;;1.80;;
22916;SDS011;11624;53.250;7.456;2022-09-11T15:06:09;5.70;;;1.77;;
22916;SDS011;11624;53.250;7.456;2022-09-11T15:08:43;4.07;;;2.00;;
22916;SDS011;11624;53.250;7.456;2022-09-11T15:11:12;6.07;;;2.20;;
22916;SDS011;11624;53.250;7.456;2022-09-11T15:13:41;3.65;;;2.08;;
22916;SDS011;11624;53.250;7.456;2022-09-11T15:16:33;5.18;;;2.05;;
22916;SDS011;11624;53.250;7.456;2022-09-11T15:19:01;3.03;;;1.92;;